»·PEaware :: N123AB KVNY-KSNA

N123AB :: KVNY-KSNA

FLIGHT INFORMATION

Flight Status: Arrived
Operator: Privately registered:
United States
More flights under this callsign
Pilot: Gopalakrishna Pillai Sulekha S. (22834)
Aircraft: CESSNA 172 SKYHAWK
(C172)
More flights by this aircraft type
Origin: KVNY Van Nuys
United States
Destination: KSNA John Wayne-Orange Co
United States
More flights between these airports :: More routes between these airports
Route:
File this flight plan on PilotEdge
Remarks: CAT 10 RATING
Altitude:
(Current/Filed)
5,500ft
Speed:
(Current/Filed)
100kts
Departed: 02-Feb-19 09:36 AM
Arrived: 02-Feb-19 10:22 AM
Distance/Time
Traveled:
44nm/0:46
Distance/Time
To Go:
Arrived

Flight Plot

Page will automatically refresh every two minutes.


Map Options




Map Legend


Flown Route
Filed Route
Departure Airport
Arrival Airport
Navaid (VOR, NDB)
Fix

Horizontal Profiles

Position Reports

Time Latitude Longitude Heading Altitude Ground
Speed
02-Feb-19 09:24 34.210744 -118.492030 74 780ft 0kts
02-Feb-19 09:25 34.210744 -118.492030 74 780ft 0kts
02-Feb-19 09:26 34.210744 -118.492030 74 780ft 0kts
02-Feb-19 09:27 34.210744 -118.492030 74 780ft 0kts
02-Feb-19 09:28 34.210744 -118.492030 74 780ft 0kts
02-Feb-19 09:29 34.210744 -118.492030 74 780ft 0kts
02-Feb-19 09:30 34.210744 -118.492030 74 780ft 0kts
02-Feb-19 09:31 34.213772 -118.491894 355 789ft 19kts
02-Feb-19 09:32 34.218665 -118.492146 49 798ft 0kts
02-Feb-19 09:33 34.218665 -118.492146 49 798ft 0kts
02-Feb-19 09:34 34.218747 -118.491996 68 799ft 9kts
02-Feb-19 09:35 34.202561 -118.489799 175 1396ft 78kts
02-Feb-19 09:36 34.180694 -118.502792 237 2173ft 67kts
02-Feb-19 09:37 34.172268 -118.520889 241 3092ft 64kts
02-Feb-19 09:38 34.163482 -118.540860 242 3969ft 66kts
02-Feb-19 09:39 34.154987 -118.560836 242 4766ft 72kts
02-Feb-19 09:40 34.141811 -118.578199 183 5487ft 78kts
02-Feb-19 09:41 34.120259 -118.565756 150 5497ft 84kts
02-Feb-19 09:42 34.112939 -118.543504 97 5495ft 66kts
02-Feb-19 09:43 34.108908 -118.520405 108 5577ft 76kts
02-Feb-19 09:44 34.089548 -118.504922 156 5582ft 90kts
02-Feb-19 09:45 34.065743 -118.494377 162 5582ft 91kts
02-Feb-19 09:46 34.041422 -118.484829 162 5582ft 92kts
02-Feb-19 09:47 34.017132 -118.475293 162 5582ft 92kts
02-Feb-19 09:48 33.993643 -118.462727 153 5582ft 92kts
02-Feb-19 09:49 33.970878 -118.448737 153 5582ft 92kts
02-Feb-19 09:50 33.948086 -118.433435 157 5582ft 95kts
02-Feb-19 09:51 33.922969 -118.422793 162 5582ft 96kts
02-Feb-19 09:52 33.904090 -118.402309 125 5577ft 84kts
02-Feb-19 09:53 33.889434 -118.380814 131 5582ft 84kts
02-Feb-19 09:54 33.873853 -118.360067 150 5582ft 82kts
02-Feb-19 09:55 33.854322 -118.345422 142 5572ft 83kts
02-Feb-19 09:56 33.836265 -118.327658 140 5563ft 83kts
02-Feb-19 09:57 33.818517 -118.310005 140 5563ft 82kts
02-Feb-19 09:58 33.800854 -118.292175 139 5564ft 82kts
02-Feb-19 09:59 33.783619 -118.273899 137 5564ft 82kts
02-Feb-19 10:00 33.767200 -118.254644 135 5564ft 82kts
02-Feb-19 10:01 33.753009 -118.233125 126 5564ft 82kts
02-Feb-19 10:03 33.740437 -118.209999 120 5564ft 82kts
02-Feb-19 10:04 33.729308 -118.185758 118 5556ft 83kts
02-Feb-19 10:05 33.719606 -118.155981 105 5095ft 99kts
02-Feb-19 10:06 33.713599 -118.129078 106 5061ft 73kts
02-Feb-19 10:07 33.704804 -118.108844 134 5065ft 69kts
02-Feb-19 10:08 33.689664 -118.091362 135 5065ft 80kts
02-Feb-19 10:09 33.672191 -118.072144 143 5064ft 88kts
02-Feb-19 10:10 33.649899 -118.060367 147 5063ft 86kts
02-Feb-19 10:11 33.643739 -118.040448 48 5061ft 70kts
02-Feb-19 10:12 33.654017 -118.023258 55 5060ft 59kts
02-Feb-19 10:13 33.673903 -118.031598 336 5141ft 78kts
02-Feb-19 10:14 33.690632 -118.046616 26 5058ft 87kts
02-Feb-19 10:15 33.687847 -118.022575 124 5016ft 61kts
02-Feb-19 10:16 33.676959 -117.994853 110 4701ft 114kts
02-Feb-19 10:17 33.666735 -117.960590 102 3594ft 108kts
02-Feb-19 10:18 33.666871 -117.923535 82 2067ft 117kts
02-Feb-19 10:19 33.669463 -117.887641 71 867ft 88kts
02-Feb-19 10:20 33.686379 -117.872722 22 521ft 71kts
02-Feb-19 10:20 33.681942 -117.864823 205 193ft 65kts
02-Feb-19 10:22 33.675865 -117.869580 299 50ft 0kts
02-Feb-19 10:23 33.677667 -117.869119 27 46ft 18kts
02-Feb-19 10:23 33.678541 -117.869004 296 46ft 0kts
02-Feb-19 10:24 33.678543 -117.869006 291 46ft 0kts

Navigation Log

Ident Type
Flight plan parsing failed, navigation log unavailable